Time;durP1;ratioP1;P1;durP2;ratioP2;P2;SDS_P1;SDS_P2;PMS_P1;PMS_P2;Temp;Humidity;BMP_temperature;BMP_pressure;BME280_temperature;BME280_humidity;BME280_pressure;Samples;Min_cycle;Max_cycle;Signal;HPM_P1;HPM_P2
2023/06/15 00:02:11;;;;;;;4.83;3.23;;;16.80;99.90;;;;;;5031296;28;20424;-70
2023/06/15 00:04:39;;;;;;;8.07;3.80;;;16.80;99.90;;;;;;5031075;28;20402;-69
2023/06/15 00:07:05;;;;;;;5.53;3.57;;;16.80;99.90;;;;;;5031022;28;20475;-70
2023/06/15 00:09:31;;;;;;;3.83;3.20;;;16.70;99.90;;;;;;5022642;28;20446;-71
2023/06/15 00:11:56;;;;;;;4.03;3.53;;;16.70;99.90;;;;;;5031305;28;20172;-70
2023/06/15 00:14:22;;;;;;;4.20;3.20;;;16.70;99.90;;;;;;5030938;28;20176;-70
2023/06/15 00:16:52;;;;;;;3.70;3.37;;;16.60;99.90;;;;;;5031023;28;20207;-71
2023/06/15 00:19:19;;;;;;;4.60;3.97;;;16.60;99.90;;;;;;5031744;28;20677;-70
2023/06/15 00:21:47;;;;;;;4.90;3.53;;;16.60;99.90;;;;;;5031726;28;20765;-71
2023/06/15 00:24:16;;;;;;;4.50;4.10;;;16.50;99.90;;;;;;5029578;28;20496;-71
2023/06/15 00:26:46;;;;;;;3.37;3.07;;;16.50;99.90;;;;;;5030016;28;20493;-70
2023/06/15 00:29:17;;;;;;;3.50;3.20;;;16.40;99.90;;;;;;5030592;28;20421;-71
2023/06/15 00:31:43;;;;;;;4.90;3.47;;;16.40;99.90;;;;;;5030485;28;20434;-71
2023/06/15 00:34:09;;;;;;;3.47;2.83;;;16.40;99.90;;;;;;5030698;28;20438;-70
2023/06/15 00:36:34;;;;;;;3.73;3.20;;;16.30;99.90;;;;;;5030589;28;20549;-70
2023/06/15 00:39:00;;;;;;;3.90;3.07;;;16.30;99.90;;;;;;5031093;28;20404;-72
2023/06/15 00:41:25;;;;;;;8.57;3.60;;;16.20;99.90;;;;;;5030149;28;20190;-71
2023/06/15 00:43:52;;;;;;;5.20;4.70;;;16.20;99.90;;;;;;5031136;28;20219;-72
2023/06/15 00:46:18;;;;;;;3.60;3.30;;;16.10;99.90;;;;;;5031447;28;20191;-72
2023/06/15 00:48:43;;;;;;;3.80;3.40;;;16.10;99.90;;;;;;5030952;28;20483;-71
2023/06/15 00:51:09;;;;;;;4.87;3.27;;;16.10;99.90;;;;;;5030734;28;20176;-70
2023/06/15 00:53:37;;;;;;;5.07;4.10;;;16.00;99.90;;;;;;5030563;28;20207;-72
2023/06/15 00:56:04;;;;;;;7.00;3.57;;;16.00;99.90;;;;;;5029151;28;20461;-70
2023/06/15 00:58:30;;;;;;;4.90;4.03;;;15.90;99.90;;;;;;5030552;28;20414;-70
2023/06/15 01:00:56;;;;;;;6.20;3.30;;;15.90;99.90;;;;;;5030467;28;20406;-71
2023/06/15 01:03:22;;;;;;;4.10;3.70;;;15.80;99.90;;;;;;5031347;28;20434;-70
2023/06/15 01:05:57;;;;;;;4.27;3.40;;;15.80;99.90;;;;;;5030413;28;20415;-71
2023/06/15 01:08:24;;;;;;;4.13;3.73;;;15.70;99.90;;;;;;5029594;28;20183;-71
2023/06/15 01:10:52;;;;;;;4.37;3.00;;;15.70;99.90;;;;;;5030497;28;20987;-70
2023/06/15 01:13:19;;;;;;;4.13;3.73;;;15.60;99.90;;;;;;5029426;28;21063;-71
2023/06/15 01:15:46;;;;;;;6.07;3.27;;;15.60;99.90;;;;;;5031435;28;20533;-72
2023/06/15 01:18:19;;;;;;;3.70;3.00;;;15.50;99.90;;;;;;5025193;28;20410;-71
2023/06/15 01:20:48;;;;;;;5.33;3.57;;;15.50;99.90;;;;;;5030776;28;20919;-72
2023/06/15 01:23:22;;;;;;;7.03;3.37;;;15.40;99.90;;;;;;5030887;28;20435;-70
2023/06/15 01:26:00;;;;;;;4.10;3.00;;;15.40;99.90;;;;;;5030421;28;20413;-71
2023/06/15 01:28:26;;;;;;;4.10;3.60;;;15.30;99.90;;;;;;5024965;28;20885;-69
2023/06/15 01:30:53;;;;;;;5.73;3.67;;;15.30;99.90;;;;;;5030035;28;20414;-71
2023/06/15 01:33:21;;;;;;;5.80;3.80;;;15.20;99.90;;;;;;5030021;28;20442;-72
2023/06/15 01:35:47;;;;;;;3.80;3.40;;;15.20;99.90;;;;;;5028735;28;20812;-71
2023/06/15 01:38:13;;;;;;;4.00;3.40;;;15.20;99.90;;;;;;5030046;28;20457;-71
2023/06/15 01:40:43;;;;;;;5.13;3.57;;;15.10;99.90;;;;;;5030073;28;20171;-70
2023/06/15 01:43:12;;;;;;;3.70;2.77;;;15.10;99.90;;;;;;5029824;28;20533;-71
2023/06/15 01:45:41;;;;;;;6.33;3.80;;;15.00;99.90;;;;;;5028356;28;20517;-70
2023/06/15 01:48:08;;;;;;;3.70;3.13;;;15.00;99.90;;;;;;5029786;28;20793;-72
2023/06/15 01:50:35;;;;;;;4.13;3.73;;;14.90;99.90;;;;;;5029985;28;20422;-70
2023/06/15 01:53:01;;;;;;;8.83;4.27;;;14.90;99.90;;;;;;5029640;28;20512;-70
2023/06/15 01:55:27;;;;;;;5.60;3.33;;;14.80;99.90;;;;;;5029713;28;20821;-70
2023/06/15 01:57:54;;;;;;;5.97;3.87;;;14.80;99.90;;;;;;5030168;28;20506;-70
2023/06/15 02:00:21;;;;;;;3.67;3.37;;;14.80;99.90;;;;;;5033672;28;20488;-71
2023/06/15 02:02:47;;;;;;;7.73;3.20;;;14.70;99.90;;;;;;5032011;28;20548;-71
2023/06/15 02:05:13;;;;;;;5.90;3.50;;;14.70;99.90;;;;;;5033734;28;20501;-70
2023/06/15 02:07:38;;;;;;;5.07;3.90;;;14.60;99.90;;;;;;5033378;28;20179;-71
2023/06/15 02:10:04;;;;;;;3.73;3.43;;;14.60;99.90;;;;;;5033733;28;20206;-71
2023/06/15 02:12:30;;;;;;;4.50;3.57;;;14.60;99.90;;;;;;5033452;28;20204;-71
2023/06/15 02:14:55;;;;;;;3.93;3.60;;;14.60;99.90;;;;;;5033203;28;20469;-71
2023/06/15 02:17:24;;;;;;;4.13;3.83;;;14.50;99.90;;;;;;5031495;28;20175;-70
2023/06/15 02:19:50;;;;;;;3.77;3.23;;;14.50;99.90;;;;;;5032145;28;20172;-71
2023/06/15 02:22:15;;;;;;;3.50;3.20;;;14.50;99.90;;;;;;5033404;28;20484;-69
2023/06/15 02:24:42;;;;;;;4.03;3.23;;;14.50;99.90;;;;;;5032972;28;20179;-71
2023/06/15 02:27:08;;;;;;;3.23;3.03;;;14.40;99.90;;;;;;5032985;28;20179;-71
2023/06/15 02:29:34;;;;;;;4.27;3.77;;;14.40;99.90;;;;;;5033316;28;20406;-71
2023/06/15 02:32:00;;;;;;;3.97;3.27;;;14.40;99.90;;;;;;5033125;28;20410;-70
2023/06/15 02:34:25;;;;;;;3.87;3.60;;;14.40;99.90;;;;;;5031434;28;20413;-70
2023/06/15 02:36:53;;;;;;;6.80;4.50;;;14.40;99.90;;;;;;5032627;28;20603;-70
2023/06/15 02:39:19;;;;;;;5.13;3.93;;;14.30;99.90;;;;;;5031716;28;20262;-71
2023/06/15 02:41:45;;;;;;;3.80;3.30;;;14.30;99.90;;;;;;5032535;28;20406;-72
2023/06/15 02:44:10;;;;;;;3.50;3.20;;;14.30;99.90;;;;;;5032662;28;20426;-70
2023/06/15 02:46:36;;;;;;;5.70;3.80;;;14.30;99.90;;;;;;5032632;28;20594;-70
2023/06/15 02:49:02;;;;;;;7.10;3.53;;;14.20;99.90;;;;;;5032589;28;20175;-70
2023/06/15 02:51:28;;;;;;;6.53;3.97;;;14.20;99.90;;;;;;5030980;28;20238;-70
2023/06/15 02:53:53;;;;;;;6.07;3.63;;;14.20;99.90;;;;;;5032327;28;20454;-71
2023/06/15 02:56:21;;;;;;;4.80;3.53;;;14.20;99.90;;;;;;5032363;28;20195;-71
2023/06/15 02:58:57;;;;;;;3.43;3.07;;;14.20;99.90;;;;;;5032297;28;20226;-70
2023/06/15 03:01:24;;;;;;;4.73;3.60;;;14.20;99.90;;;;;;5032731;28;20407;-70
2023/06/15 03:03:50;;;;;;;4.37;3.73;;;14.20;99.90;;;;;;5032376;28;20437;-71
2023/06/15 03:06:16;;;;;;;6.70;4.03;;;14.20;99.90;;;;;;5030720;28;20438;-71
2023/06/15 03:08:42;;;;;;;3.40;3.10;;;14.20;99.90;;;;;;5032333;28;20454;-70
2023/06/15 03:11:08;;;;;;;4.10;3.70;;;14.20;99.90;;;;;;5032192;28;20547;-71
2023/06/15 03:13:34;;;;;;;4.97;4.10;;;14.20;99.90;;;;;;5033152;28;20515;-71
2023/06/15 03:16:01;;;;;;;4.67;3.43;;;14.20;99.90;;;;;;5032375;28;20485;-71
2023/06/15 03:18:28;;;;;;;7.50;4.20;;;14.20;99.90;;;;;;5032473;28;20418;-69
2023/06/15 03:20:54;;;;;;;5.90;3.93;;;14.30;99.90;;;;;;5032046;28;20414;-71
2023/06/15 03:23:19;;;;;;;4.53;3.40;;;14.30;99.90;;;;;;5042060;23;20482;-67
2023/06/15 03:25:45;;;;;;;5.27;4.70;;;14.30;99.90;;;;;;5031825;28;20679;-67
2023/06/15 03:28:11;;;;;;;3.73;3.30;;;14.30;99.90;;;;;;5033752;28;20406;-67
2023/06/15 03:30:40;;;;;;;5.03;3.60;;;14.30;99.90;;;;;;5033614;28;20250;-67
2023/06/15 03:33:06;;;;;;;4.07;3.70;;;14.30;99.90;;;;;;5033713;28;20501;-67
2023/06/15 03:35:33;;;;;;;4.00;3.50;;;14.30;99.90;;;;;;5033254;28;21003;-67
2023/06/15 03:37:59;;;;;;;5.70;3.50;;;14.30;99.90;;;;;;5033222;28;20421;-67
2023/06/15 03:40:25;;;;;;;7.80;4.13;;;14.30;99.90;;;;;;5031718;28;20864;-66
2023/06/15 03:42:50;;;;;;;5.13;3.80;;;14.30;99.90;;;;;;5030878;28;20164;-66
2023/06/15 03:45:17;;;;;;;3.50;3.20;;;14.30;99.90;;;;;;5025985;28;20215;-66
2023/06/15 03:47:47;;;;;;;4.03;3.13;;;14.30;99.90;;;;;;5033076;28;20168;-66
2023/06/15 03:50:13;;;;;;;4.27;3.10;;;14.30;99.90;;;;;;5033257;28;20418;-67
2023/06/15 03:52:38;;;;;;;4.10;3.80;;;14.30;99.90;;;;;;5032878;28;20774;-66
2023/06/15 03:55:05;;;;;;;3.87;3.53;;;14.30;99.90;;;;;;5032950;28;20565;-66
2023/06/15 03:57:31;;;;;;;3.83;3.50;;;14.40;99.90;;;;;;5031757;28;20250;-67
2023/06/15 03:59:57;;;;;;;5.97;4.03;;;14.40;99.90;;;;;;5031660;28;20525;-67
2023/06/15 04:02:22;;;;;;;4.40;4.00;;;14.50;99.90;;;;;;5031962;28;20258;-67
2023/06/15 04:04:48;;;;;;;3.37;3.07;;;14.50;99.90;;;;;;5028152;28;20632;-68
2023/06/15 04:07:17;;;;;;;3.80;3.40;;;14.70;99.90;;;;;;5033036;28;20245;-67
2023/06/15 04:09:42;;;;;;;4.30;3.90;;;14.80;99.90;;;;;;5032802;28;20168;-68
2023/06/15 04:12:08;;;;;;;3.80;3.37;;;14.80;99.90;;;;;;5032835;28;20417;-67
2023/06/15 04:14:34;;;;;;;7.87;3.83;;;14.80;99.90;;;;;;5032562;28;20222;-67
2023/06/15 04:17:00;;;;;;;5.90;4.57;;;14.90;99.90;;;;;;5032802;28;20954;-68
2023/06/15 04:19:25;;;;;;;4.37;3.73;;;15.00;99.90;;;;;;5030982;28;20217;-68
2023/06/15 04:21:51;;;;;;;4.67;3.33;;;15.20;99.90;;;;;;5030982;28;20836;-67
2023/06/15 04:24:16;;;;;;;4.40;4.10;;;15.50;99.90;;;;;;5032554;28;20203;-67
2023/06/15 04:26:42;;;;;;;3.90;3.20;;;15.60;99.90;;;;;;5032493;28;20660;-67
2023/06/15 04:29:08;;;;;;;4.70;3.30;;;15.70;99.90;;;;;;5032678;28;20183;-68
2023/06/15 04:31:34;;;;;;;4.37;3.30;;;15.80;99.90;;;;;;5032394;28;20255;-68
2023/06/15 04:34:06;;;;;;;7.27;3.77;;;16.00;99.90;;;;;;5032361;28;20449;-69
2023/06/15 04:36:34;;;;;;;7.30;4.80;;;16.10;99.90;;;;;;5030744;28;20185;-68
2023/06/15 04:39:00;;;;;;;4.90;4.07;;;16.10;99.90;;;;;;5032313;28;20411;-68
2023/06/15 04:41:29;;;;;;;5.27;3.10;;;16.50;99.90;;;;;;5032724;28;20890;-69
2023/06/15 04:43:55;;;;;;;3.43;3.00;;;16.40;99.90;;;;;;5031209;28;20435;-69
2023/06/15 04:46:21;;;;;;;3.80;3.50;;;16.50;99.90;;;;;;5032356;28;20409;-68
2023/06/15 04:48:47;;;;;;;5.20;3.60;;;16.60;99.90;;;;;;5032024;28;20447;-68
2023/06/15 04:51:13;;;;;;;4.10;3.40;;;16.50;99.90;;;;;;5032237;28;21152;-68
2023/06/15 04:53:42;;;;;;;7.40;3.50;;;16.40;99.90;;;;;;5030867;28;20226;-68
2023/06/15 04:56:09;;;;;;;6.40;3.03;;;16.60;99.90;;;;;;5032065;28;20460;-68
2023/06/15 04:58:34;;;;;;;3.23;2.93;;;16.70;99.90;;;;;;5032143;28;20754;-69
2023/06/15 05:01:00;;;;;;;4.03;3.63;;;17.00;99.90;;;;;;5031989;28;20411;-68
2023/06/15 05:03:25;;;;;;;3.73;3.03;;;17.00;99.90;;;;;;5031931;28;20194;-68
2023/06/15 05:05:51;;;;;;;3.27;3.00;;;17.00;99.90;;;;;;5031655;28;20164;-68
2023/06/15 05:08:17;;;;;;;5.90;4.57;;;17.50;99.90;;;;;;5031831;28;20184;-67
2023/06/15 05:10:42;;;;;;;4.00;3.70;;;18.10;99.90;;;;;;5030201;28;20188;-67
2023/06/15 05:13:08;;;;;;;4.40;3.10;;;18.40;99.90;;;;;;5030461;28;20195;-67
2023/06/15 05:15:34;;;;;;;7.90;3.63;;;19.20;99.90;;;;;;5031505;28;20196;-68
2023/06/15 05:18:00;;;;;;;3.37;2.63;;;18.70;99.90;;;;;;5031513;28;20173;-67
2023/06/15 05:20:26;;;;;;;5.13;2.60;;;18.70;99.90;;;;;;5031638;28;20411;-67
2023/06/15 05:22:51;;;;;;;3.53;3.17;;;18.80;99.90;;;;;;5031644;28;20169;-68
2023/06/15 05:25:18;;;;;;;3.90;2.63;;;18.90;99.90;;;;;;5031615;28;20204;-67
2023/06/15 05:27:44;;;;;;;5.23;3.20;;;18.80;99.90;;;;;;5030020;28;20184;-67
2023/06/15 05:30:11;;;;;;;3.43;3.00;;;18.90;99.90;;;;;;5031527;28;20513;-67
2023/06/15 05:32:38;;;;;;;3.63;2.60;;;18.70;99.90;;;;;;5030624;28;20539;-67
2023/06/15 05:35:08;;;;;;;3.10;2.87;;;18.50;99.90;;;;;;5031362;28;20451;-67
2023/06/15 05:37:34;;;;;;;3.33;3.03;;;19.10;99.90;;;;;;5030203;28;20462;-67
2023/06/15 05:40:00;;;;;;;3.43;2.93;;;19.20;99.90;;;;;;5028577;28;20434;-68
2023/06/15 05:42:26;;;;;;;4.70;2.87;;;19.30;99.90;;;;;;5031682;28;20861;-68
2023/06/15 05:44:52;;;;;;;6.93;3.03;;;19.30;99.90;;;;;;5030918;28;20438;-67
2023/06/15 05:47:17;;;;;;;3.27;2.90;;;19.60;99.90;;;;;;5032348;28;20491;-68
2023/06/15 05:49:43;;;;;;;3.50;3.20;;;19.70;99.90;;;;;;5033772;28;20241;-68
2023/06/15 05:52:09;;;;;;;3.23;2.90;;;19.80;99.90;;;;;;5031839;28;20172;-69
2023/06/15 05:54:35;;;;;;;4.80;3.80;;;19.90;99.90;;;;;;5032235;28;20197;-67
2023/06/15 05:57:01;;;;;;;3.17;2.87;;;19.70;99.90;;;;;;5029985;28;20463;-68
2023/06/15 05:59:27;;;;;;;4.37;3.57;;;19.40;99.90;;;;;;5030091;28;20182;-68
2023/06/15 06:01:53;;;;;;;4.73;3.23;;;19.40;99.90;;;;;;5031477;28;20430;-68
2023/06/15 06:04:19;;;;;;;4.27;3.00;;;19.10;99.90;;;;;;5031053;28;20435;-68
2023/06/15 06:06:45;;;;;;;3.83;3.13;;;19.60;99.90;;;;;;5031240;28;20235;-68
2023/06/15 06:09:11;;;;;;;4.40;3.40;;;19.30;99.90;;;;;;5031080;28;20261;-68
2023/06/15 06:11:37;;;;;;;4.60;3.37;;;19.20;99.90;;;;;;5029278;28;20260;-68
2023/06/15 06:14:02;;;;;;;4.70;3.10;;;19.50;99.90;;;;;;5026670;28;20532;-68
2023/06/15 06:16:28;;;;;;;4.20;3.40;;;19.50;99.90;;;;;;5031140;28;20292;-68
2023/06/15 06:18:55;;;;;;;5.60;3.47;;;19.50;99.90;;;;;;5031245;28;20248;-68
2023/06/15 06:21:20;;;;;;;6.73;4.30;;;19.50;99.90;;;;;;5031089;28;20165;-69
2023/06/15 06:23:46;;;;;;;5.07;3.73;;;19.60;99.90;;;;;;5031180;28;20462;-68
2023/06/15 06:26:12;;;;;;;4.33;3.93;;;19.00;99.90;;;;;;5031002;28;20236;-68
2023/06/15 06:28:37;;;;;;;3.37;3.07;;;19.00;99.90;;;;;;5029458;28;20637;-68
2023/06/15 06:31:03;;;;;;;5.13;3.17;;;19.40;99.90;;;;;;5030812;28;20425;-68
2023/06/15 06:33:29;;;;;;;4.90;3.40;;;19.70;99.90;;;;;;5030832;28;20654;-68
2023/06/15 06:35:54;;;;;;;6.17;3.47;;;19.50;99.90;;;;;;5031033;28;20228;-68
2023/06/15 06:38:20;;;;;;;3.27;2.97;;;20.10;99.90;;;;;;5030803;28;20208;-68
2023/06/15 06:40:46;;;;;;;3.50;2.60;;;19.80;99.90;;;;;;5026782;28;20185;-68
2023/06/15 06:43:11;;;;;;;5.53;2.83;;;20.50;99.90;;;;;;5028321;28;20204;-68
2023/06/15 06:45:37;;;;;;;4.93;3.17;;;20.70;99.90;;;;;;5033512;28;20658;-68
2023/06/15 06:48:03;;;;;;;4.43;3.40;;;21.40;99.90;;;;;;5034357;28;20656;-68
2023/06/15 06:50:28;;;;;;;8.23;2.80;;;22.10;99.90;;;;;;5034162;28;20178;-68
2023/06/15 06:52:54;;;;;;;3.80;3.20;;;23.50;99.90;;;;;;5034234;28;20824;-68
2023/06/15 06:55:19;;;;;;;3.53;2.73;;;23.20;99.90;;;;;;5033832;28;20199;-68
2023/06/15 06:57:45;;;;;;;6.20;3.83;;;24.10;99.90;;;;;;5028188;28;20629;-68
2023/06/15 07:00:11;;;;;;;4.90;3.10;;;24.60;99.90;;;;;;5022941;28;20559;-68
2023/06/15 07:02:37;;;;;;;3.50;2.80;;;24.40;99.90;;;;;;5033591;28;20529;-68
2023/06/15 07:05:03;;;;;;;3.33;2.70;;;24.80;99.90;;;;;;5033699;28;20445;-69
2023/06/15 07:07:28;;;;;;;7.73;3.07;;;25.70;99.90;;;;;;5033934;28;20708;-69
2023/06/15 07:09:54;;;;;;;4.53;2.73;;;25.10;99.90;;;;;;5034167;28;20644;-69
2023/06/15 07:12:20;;;;;;;4.47;3.50;;;24.20;99.90;;;;;;5025521;28;20210;-68
2023/06/15 07:14:46;;;;;;;3.00;2.70;;;24.40;99.90;;;;;;5026084;28;20206;-69
2023/06/15 07:17:12;;;;;;;5.87;3.17;;;24.80;99.20;;;;;;5028890;28;20418;-66
2023/06/15 07:19:37;;;;;;;4.33;3.00;;;23.70;99.60;;;;;;5039230;28;20176;-70
2023/06/15 07:22:03;;;;;;;5.07;2.60;;;23.60;99.90;;;;;;5025948;28;20525;-68
2023/06/15 07:24:29;;;;;;;4.77;3.70;;;23.60;99.90;;;;;;5030556;28;20222;-68
2023/06/15 07:26:56;;;;;;;3.20;3.00;;;23.70;99.90;;;;;;5027456;28;20237;-72
2023/06/15 07:29:22;;;;;;;4.40;3.23;;;23.30;99.90;;;;;;5024571;28;20179;-68
2023/06/15 07:31:47;;;;;;;5.10;4.00;;;23.50;99.90;;;;;;5030364;28;20422;-68
2023/06/15 07:34:13;;;;;;;6.20;3.10;;;22.70;99.90;;;;;;5028261;28;21062;-70
2023/06/15 07:36:38;;;;;;;3.60;3.30;;;22.20;99.90;;;;;;5030499;28;20207;-69
2023/06/15 07:39:04;;;;;;;4.33;3.73;;;22.00;99.90;;;;;;5031198;28;20216;-68
2023/06/15 07:41:30;;;;;;;6.03;3.83;;;21.90;99.90;;;;;;5029460;28;20658;-69
2023/06/15 07:43:55;;;;;;;3.23;3.03;;;22.00;99.90;;;;;;5033131;28;20664;-69
2023/06/15 07:46:21;;;;;;;4.40;4.00;;;21.80;99.90;;;;;;5033028;28;20618;-69
2023/06/15 07:48:46;;;;;;;3.70;3.40;;;22.10;99.90;;;;;;5033337;28;20185;-70
2023/06/15 07:51:12;;;;;;;5.70;4.97;;;22.10;99.90;;;;;;5030928;28;20187;-69
2023/06/15 07:53:38;;;;;;;3.87;3.13;;;23.10;99.90;;;;;;5028706;28;20251;-69
2023/06/15 07:56:04;;;;;;;3.83;3.50;;;22.30;99.90;;;;;;5032123;28;20233;-68
2023/06/15 07:58:30;;;;;;;3.80;3.50;;;23.10;99.90;;;;;;5033058;28;20416;-68
2023/06/15 08:00:55;;;;;;;5.40;4.17;;;24.00;99.90;;;;;;5032802;28;20554;-69
2023/06/15 08:03:22;;;;;;;5.17;3.40;;;24.70;99.90;;;;;;5032879;28;20254;-68
2023/06/15 08:05:48;;;;;;;3.70;3.40;;;23.80;99.90;;;;;;5033191;28;20191;-69
2023/06/15 08:08:13;;;;;;;4.33;3.90;;;25.10;99.90;;;;;;5029615;28;20422;-69
2023/06/15 08:10:39;;;;;;;3.40;2.80;;;26.20;99.70;;;;;;5030035;28;20175;-68
2023/06/15 08:13:06;;;;;;;4.07;3.33;;;25.70;99.10;;;;;;5024089;28;20186;-68
2023/06/15 08:15:32;;;;;;;5.70;3.73;;;24.70;99.10;;;;;;5028511;28;20261;-68
2023/06/15 08:17:58;;;;;;;5.90;3.03;;;25.30;99.20;;;;;;5032568;28;20410;-69
2023/06/15 08:20:23;;;;;;;4.20;3.80;;;24.50;99.90;;;;;;5032668;28;20207;-68
2023/06/15 08:22:49;;;;;;;4.70;3.60;;;23.70;99.90;;;;;;5025584;28;20585;-69
2023/06/15 08:25:15;;;;;;;3.73;3.43;;;23.90;99.90;;;;;;5027202;28;20226;-68
2023/06/15 08:27:42;;;;;;;6.13;3.80;;;24.70;99.40;;;;;;5028740;28;20184;-68
2023/06/15 08:30:08;;;;;;;6.40;3.33;;;25.20;99.00;;;;;;5032622;28;20422;-69
2023/06/15 08:32:34;;;;;;;3.80;3.50;;;25.50;98.80;;;;;;5030811;28;20536;-69
2023/06/15 08:34:59;;;;;;;4.33;3.83;;;25.50;97.60;;;;;;5032024;28;20532;-68
2023/06/15 08:37:25;;;;;;;3.80;3.47;;;25.00;98.70;;;;;;5032302;28;20492;-69
2023/06/15 08:39:51;;;;;;;3.77;3.47;;;26.30;98.00;;;;;;5031588;28;20175;-69
2023/06/15 08:42:17;;;;;;;3.73;3.43;;;26.90;95.40;;;;;;5027013;28;20427;-68
2023/06/15 08:44:46;;;;;;;3.50;2.97;;;26.70;95.00;;;;;;5030874;28;20199;-68
2023/06/15 08:47:12;;;;;;;5.53;4.03;;;27.30;94.70;;;;;;5023398;28;20417;-68
2023/06/15 08:49:39;;;;;;;5.07;2.97;;;27.50;93.80;;;;;;5031805;28;20912;-69
2023/06/15 08:52:08;;;;;;;5.10;3.30;;;28.10;92.90;;;;;;5029387;28;20537;-68
2023/06/15 08:54:35;;;;;;;5.20;3.83;;;28.20;92.60;;;;;;5030048;28;20802;-69
2023/06/15 08:57:01;;;;;;;4.03;3.73;;;29.00;91.50;;;;;;5028878;28;20454;-69
2023/06/15 08:59:30;;;;;;;4.73;3.67;;;28.00;92.10;;;;;;5032017;28;20406;-69
2023/06/15 09:01:57;;;;;;;5.43;3.77;;;28.10;91.80;;;;;;5031947;28;20433;-69
2023/06/15 09:04:25;;;;;;;4.70;4.13;;;28.90;91.30;;;;;;5031819;28;20426;-69
2023/06/15 09:06:50;;;;;;;3.60;3.20;;;28.90;91.50;;;;;;5031768;28;20718;-69
2023/06/15 09:09:16;;;;;;;4.30;3.33;;;29.40;90.10;;;;;;5028040;28;20504;-68
2023/06/15 09:11:46;;;;;;;3.83;2.77;;;28.90;90.20;;;;;;5018869;28;20206;-68
2023/06/15 09:14:12;;;;;;;3.73;3.33;;;29.90;89.80;;;;;;5026652;28;20564;-68
2023/06/15 09:16:39;;;;;;;4.43;4.03;;;29.00;88.60;;;;;;5023669;28;20486;-69
2023/06/15 09:19:11;;;;;;;4.40;4.10;;;28.30;90.60;;;;;;5031557;28;20413;-70
2023/06/15 09:21:48;;;;;;;8.13;4.20;;;27.90;90.30;;;;;;5031654;28;20402;-68
2023/06/15 09:24:16;;;;;;;6.53;4.60;;;27.80;90.30;;;;;;5031182;28;20472;-68
2023/06/15 09:26:45;;;;;;;5.13;4.70;;;27.10;91.00;;;;;;5029557;28;20423;-68
2023/06/15 09:29:14;;;;;;;3.70;3.40;;;26.40;91.70;;;;;;5031274;28;20501;-69
2023/06/15 09:31:43;;;;;;;12.50;5.03;;;26.50;91.70;;;;;;5031715;28;20415;-68
2023/06/15 09:34:10;;;;;;;6.20;3.80;;;26.00;90.30;;;;;;5031148;28;20434;-68
2023/06/15 09:36:50;;;;;;;4.43;4.00;;;26.00;90.40;;;;;;5031300;28;20454;-68
2023/06/15 09:39:23;;;;;;;4.07;3.67;;;25.50;90.20;;;;;;5025723;28;20456;-68
2023/06/15 09:42:01;;;;;;;4.93;4.30;;;25.20;89.70;;;;;;5030614;28;20447;-68
2023/06/15 09:44:27;;;;;;;6.00;5.40;;;24.50;90.40;;;;;;5031764;28;20437;-70
2023/06/15 09:46:58;;;;;;;4.63;3.60;;;24.40;90.70;;;;;;5029524;28;20425;-70
2023/06/15 09:49:25;;;;;;;5.70;3.83;;;24.10;91.30;;;;;;5032742;28;20417;-69
2023/06/15 09:51:52;;;;;;;4.30;3.90;;;24.20;91.30;;;;;;5034224;28;20402;-69
2023/06/15 09:54:21;;;;;;;5.40;3.50;;;24.20;91.70;;;;;;5032750;22;20497;-71
2023/06/15 09:56:52;;;;;;;4.43;4.13;;;24.10;92.10;;;;;;5010829;28;20553;-69
2023/06/15 09:59:20;;;;;;;5.27;4.00;;;23.80;92.80;;;;;;5003046;28;20774;-69
2023/06/15 10:01:49;;;;;;;4.60;4.20;;;23.70;93.20;;;;;;5002355;28;20425;-69
2023/06/15 10:04:19;;;;;;;4.73;4.10;;;23.60;93.60;;;;;;5004593;28;20462;-69
2023/06/15 10:06:50;;;;;;;4.60;4.20;;;23.20;94.20;;;;;;5009660;28;20895;-70
2023/06/15 10:09:23;;;;;;;6.20;4.70;;;23.20;94.60;;;;;;5005490;28;20450;-69
2023/06/15 10:11:50;;;;;;;5.27;4.00;;;23.20;95.20;;;;;;5008450;28;20422;-70
2023/06/15 10:14:23;;;;;;;8.73;4.00;;;23.30;95.60;;;;;;5015478;28;20465;-70
2023/06/15 10:16:56;;;;;;;5.90;3.60;;;23.10;95.40;;;;;;5006589;28;20511;-69
2023/06/15 10:19:25;;;;;;;7.30;3.87;;;22.80;96.10;;;;;;5026084;28;20434;-71
2023/06/15 10:21:51;;;;;;;5.03;3.70;;;22.60;95.70;;;;;;5014153;28;20486;-70
2023/06/15 10:24:21;;;;;;;6.43;3.93;;;22.50;96.30;;;;;;5012463;28;20787;-70
2023/06/15 10:26:46;;;;;;;4.67;4.27;;;22.60;96.60;;;;;;5012978;28;20416;-70
2023/06/15 10:29:29;;;;;;;5.50;3.77;;;22.70;95.70;;;;;;5012042;28;20852;-71
2023/06/15 10:32:12;;;;;;;7.60;3.80;;;22.60;94.80;;;;;;5006934;28;20239;-70
2023/06/15 10:34:44;;;;;;;4.50;3.30;;;22.30;91.90;;;;;;5008378;28;20427;-71
2023/06/15 10:37:16;;;;;;;6.57;3.77;;;22.10;91.40;;;;;;5011325;28;20493;-71
2023/06/15 10:39:45;;;;;;;5.20;3.20;;;22.00;92.00;;;;;;5013420;28;20495;-70
2023/06/15 10:42:14;;;;;;;3.27;2.97;;;22.00;92.30;;;;;;5011599;28;20895;-70
2023/06/15 10:44:40;;;;;;;4.03;2.80;;;21.90;92.90;;;;;;5012274;28;20432;-67
2023/06/15 10:47:06;;;;;;;4.33;3.27;;;21.80;92.30;;;;;;5012872;28;20517;-71
2023/06/15 10:49:32;;;;;;;3.73;3.43;;;21.70;92.30;;;;;;5009581;28;20425;-70
2023/06/15 10:51:58;;;;;;;5.87;3.57;;;21.70;92.70;;;;;;5009578;28;20429;-72
2023/06/15 10:54:26;;;;;;;6.60;3.30;;;21.80;93.00;;;;;;5010981;28;20516;-72
2023/06/15 10:56:53;;;;;;;3.67;3.33;;;21.90;93.20;;;;;;5004760;28;20538;-70
2023/06/15 10:59:45;;;;;;;6.47;3.13;;;21.60;93.80;;;;;;5012747;28;20473;-71
2023/06/15 11:02:32;;;;;;;8.50;3.50;;;21.80;93.10;;;;;;5008116;28;20430;-74
2023/06/15 11:05:00;;;;;;;6.90;3.30;;;21.60;93.10;;;;;;5011892;28;20410;-71
2023/06/15 11:07:32;;;;;;;4.93;3.13;;;21.60;93.30;;;;;;5007185;28;20429;-71
2023/06/15 11:10:01;;;;;;;6.00;2.93;;;21.60;93.40;;;;;;5012963;28;20546;-71
2023/06/15 11:12:38;;;;;;;5.13;2.63;;;21.70;93.50;;;;;;5005132;28;20427;-71
2023/06/15 11:15:05;;;;;;;8.63;2.83;;;21.90;93.10;;;;;;5001623;28;20648;-69
2023/06/15 11:17:51;;;;;;;3.87;3.07;;;22.10;93.10;;;;;;5005821;28;20494;-69
2023/06/15 11:20:42;;;;;;;2.70;2.50;;;22.10;92.60;;;;;;5008472;28;20485;-70
2023/06/15 11:23:23;;;;;;;7.20;2.90;;;22.10;92.10;;;;;;4996910;28;20469;-71
2023/06/15 11:25:51;;;;;;;6.70;3.83;;;22.10;92.30;;;;;;4999639;28;21028;-69
2023/06/15 11:28:22;;;;;;;3.70;3.40;;;22.30;92.90;;;;;;5003199;28;21084;-70
2023/06/15 11:30:52;;;;;;;4.63;3.10;;;22.50;92.80;;;;;;4999584;28;20467;-71
2023/06/15 11:33:30;;;;;;;5.37;3.63;;;22.40;93.10;;;;;;4998340;28;20599;-67
2023/06/15 11:36:07;;;;;;;5.63;3.27;;;22.60;93.50;;;;;;5007984;28;20481;-68
2023/06/15 11:38:33;;;;;;;4.07;3.67;;;22.90;93.00;;;;;;5004015;28;20437;-70
2023/06/15 11:41:08;;;;;;;3.03;2.70;;;23.00;93.10;;;;;;5010898;28;20619;-69
2023/06/15 11:43:42;;;;;;;4.40;3.00;;;23.10;92.70;;;;;;5004524;28;20827;-69
2023/06/15 11:46:16;;;;;;;4.67;3.10;;;22.70;92.90;;;;;;5001714;28;20433;-70
2023/06/15 11:48:45;;;;;;;3.83;3.40;;;22.40;93.30;;;;;;5007235;28;20881;-70
2023/06/15 11:51:13;;;;;;;4.80;3.37;;;22.40;93.90;;;;;;5003055;28;20442;-70
2023/06/15 11:53:39;;;;;;;4.20;3.13;;;22.20;94.20;;;;;;5001628;28;20463;-69
2023/06/15 11:56:12;;;;;;;3.77;3.40;;;22.30;93.90;;;;;;5010473;28;20461;-72
2023/06/15 11:58:41;;;;;;;3.87;3.53;;;21.80;94.30;;;;;;5008158;28;20509;-70
2023/06/15 12:01:08;;;;;;;5.90;3.83;;;22.20;94.70;;;;;;4995434;28;20431;-69
2023/06/15 12:03:37;;;;;;;4.03;3.73;;;23.00;94.10;;;;;;5002096;28;20453;-69
2023/06/15 12:06:03;;;;;;;3.27;2.97;;;23.50;93.30;;;;;;5011099;28;20415;-70
2023/06/15 12:08:31;;;;;;;3.80;3.50;;;23.20;92.70;;;;;;4999097;28;20451;-69
2023/06/15 12:10:56;;;;;;;6.03;3.43;;;22.90;92.30;;;;;;5000975;28;20213;-71
2023/06/15 12:13:23;;;;;;;3.97;3.50;;;23.10;92.30;;;;;;5003110;28;20442;-70
2023/06/15 12:15:50;;;;;;;4.73;3.20;;;23.60;92.60;;;;;;5008676;28;20843;-70
2023/06/15 12:18:17;;;;;;;8.13;3.60;;;23.90;91.50;;;;;;4995538;28;20443;-69
2023/06/15 12:20:50;;;;;;;3.50;3.20;;;24.30;91.40;;;;;;4842953;28;21016;-69
2023/06/15 12:23:33;;;;;;;6.00;3.70;;;24.50;89.50;;;;;;4749644;28;21121;-68
2023/06/15 12:26:03;;;;;;;4.17;3.60;;;24.00;90.00;;;;;;4954661;28;20460;-69
2023/06/15 12:28:32;;;;;;;5.53;3.80;;;23.70;90.40;;;;;;4965301;28;20474;-70
2023/06/15 12:31:04;;;;;;;7.60;3.67;;;23.40;90.40;;;;;;4790384;28;20844;-68
2023/06/15 12:33:39;;;;;;;5.40;3.10;;;23.40;90.90;;;;;;4966299;28;20486;-69
2023/06/15 12:36:10;;;;;;;2.47;2.27;;;23.30;90.20;;;;;;4670367;28;20884;-71
2023/06/15 12:38:36;;;;;;;3.00;2.67;;;23.30;90.50;;;;;;4681000;28;21002;-74
2023/06/15 12:41:02;;;;;;;5.00;2.83;;;23.30;90.50;;;;;;4786584;28;20454;-71
2023/06/15 12:43:30;;;;;;;3.07;2.77;;;23.10;87.90;;;;;;4809380;28;21013;-73
2023/06/15 12:45:56;;;;;;;3.53;3.10;;;22.60;88.90;;;;;;4649280;28;20593;-73
2023/06/15 12:48:26;;;;;;;6.53;2.83;;;22.70;89.40;;;;;;4635084;28;21705;-72
2023/06/15 12:50:52;;;;;;;5.30;2.87;;;22.60;90.10;;;;;;4703634;28;21177;-70